Time;durP1;ratioP1;P1;durP2;ratioP2;P2;SDS_P1;SDS_P2;PMS_P1;PMS_P2;Temp;Humidity;BMP_temperature;BMP_pressure;BME280_temperature;BME280_humidity;BME280_pressure;Samples;Min_cycle;Max_cycle;Signal;HPM_P1;HPM_P2
2022/06/15 00:10:17;;;;;;;6.07;1.20;;;;;;;19.76;75.53;99993.09;31483238;28;20052;-72
2022/06/15 00:25:19;;;;;;;2.58;1.15;;;;;;;19.54;74.88;99998.34;31448542;28;20049;-73
2022/06/15 00:40:21;;;;;;;3.63;1.45;;;;;;;19.56;76.48;100006.88;31457140;28;20067;-71
2022/06/15 00:55:26;;;;;;;2.80;1.50;;;;;;;19.36;75.42;100016.63;31432794;28;20392;-72
2022/06/15 01:10:50;;;;;;;4.95;1.98;;;;;;;18.79;80.23;100034.78;31454621;28;20055;-73
2022/06/15 01:26:25;;;;;;;4.13;1.75;;;;;;;18.42;82.31;100033.13;31439020;28;20095;-72
2022/06/15 01:41:34;;;;;;;2.15;1.58;;;;;;;18.41;82.78;100050.13;31434577;28;20055;-73
2022/06/15 01:56:41;;;;;;;2.58;1.85;;;;;;;18.16;85.22;100058.91;31448182;28;20779;-74
2022/06/15 02:11:44;;;;;;;3.67;1.70;;;;;;;18.14;85.46;100058.63;31439886;28;20365;-72
2022/06/15 02:26:46;;;;;;;4.93;1.95;;;;;;;18.19;85.90;100055.94;31438616;28;20700;-73
2022/06/15 02:41:56;;;;;;;4.82;2.28;;;;;;;18.22;85.80;100054.25;31468606;28;20045;-73
2022/06/15 02:57:02;;;;;;;2.70;2.07;;;;;;;18.09;87.71;100073.00;31447234;28;20064;-72
2022/06/15 03:12:05;;;;;;;4.55;2.90;;;;;;;18.12;88.66;100083.06;31432620;28;20047;-73
2022/06/15 03:27:06;;;;;;;3.85;2.20;;;;;;;17.97;89.03;100089.25;31454725;28;20060;-72
2022/06/15 03:42:13;;;;;;;5.82;2.50;;;;;;;17.87;89.56;100129.00;31428609;28;20079;-72
2022/06/15 03:57:18;;;;;;;5.68;3.10;;;;;;;18.01;88.80;100150.25;31419431;28;20543;-75
2022/06/15 04:12:20;;;;;;;3.70;1.67;;;;;;;18.35;87.52;100139.94;31441938;28;20076;-72
2022/06/15 04:27:22;;;;;;;2.38;1.85;;;;;;;18.97;84.83;100166.59;31437652;28;20060;-73
2022/06/15 04:42:24;;;;;;;2.63;1.40;;;;;;;19.29;76.20;100164.88;31449262;28;20044;-71
2022/06/15 04:57:26;;;;;;;2.67;1.60;;;;;;;19.40;75.02;100163.03;31451876;28;20398;-72
2022/06/15 05:12:29;;;;;;;3.50;1.60;;;;;;;20.04;68.06;100167.75;31443286;28;20045;-73
2022/06/15 05:27:32;;;;;;;2.28;1.65;;;;;;;20.41;64.19;100175.47;31447349;28;20064;-72
2022/06/15 05:42:35;;;;;;;1.97;1.40;;;;;;;20.51;62.10;100176.84;31421767;28;20063;-72
2022/06/15 05:57:37;;;;;;;2.37;1.60;;;;;;;20.13;66.19;100186.13;31416941;28;20051;-74
2022/06/15 06:12:39;;;;;;;2.25;1.38;;;;;;;21.48;65.35;100196.56;31441064;28;20058;-73
2022/06/15 06:27:41;;;;;;;3.38;1.55;;;;;;;22.24;56.79;100222.41;31467794;28;20053;-72
2022/06/15 06:42:43;;;;;;;1.70;1.40;;;;;;;22.84;55.15;100230.69;31429950;28;20053;-72
2022/06/15 06:57:45;;;;;;;1.67;1.37;;;;;;;22.95;54.29;100219.63;31453056;28;20048;-72
2022/06/15 07:12:47;;;;;;;2.87;1.40;;;;;;;23.52;50.44;100237.81;31413043;28;20065;-71
2022/06/15 07:27:49;;;;;;;9.27;4.73;;;;;;;23.84;47.44;100224.47;31432650;28;20056;-73
2022/06/15 07:42:52;;;;;;;;;;;;;;;23.78;44.77;100205.81;31428898;28;20072;-81
2022/06/15 07:57:55;;;;;;;6.33;1.57;;;;;;;24.49;45.23;100216.44;31455915;28;19928;-71
2022/06/15 08:12:57;;;;;;;2.70;2.17;;;;;;;24.77;46.75;100225.38;31433859;28;20463;-76
2022/06/15 08:27:59;;;;;;;;;;;;;;;24.54;46.91;100234.34;31456926;28;20060;-76
2022/06/15 08:43:13;;;;;;;4.95;2.58;;;;;;;23.87;48.87;100243.59;31464532;28;19924;-75
2022/06/15 08:58:40;;;;;;;5.30;3.22;;;;;;;24.18;47.14;100241.75;31453665;28;20050;-75
2022/06/15 09:14:00;;;;;;;2.30;1.80;;;;;;;25.33;44.64;100246.47;31439220;28;20048;-77
2022/06/15 09:29:11;;;;;;;1.95;1.52;;;;;;;25.29;43.30;100252.31;31429732;28;20063;-78
2022/06/15 09:44:47;;;;;;;3.60;2.15;;;;;;;26.27;40.35;100252.41;31446209;28;20409;-70
2022/06/15 09:59:49;;;;;;;3.35;1.90;;;;;;;26.94;37.03;100249.53;31442914;28;20543;-76
2022/06/15 10:15:04;;;;;;;2.30;1.63;;;;;;;28.01;33.63;100232.59;31429878;28;20044;-71
2022/06/15 10:30:06;;;;;;;4.22;1.52;;;;;;;28.41;35.36;100240.97;31431472;28;20076;-70
2022/06/15 10:45:42;;;;;;;1.80;1.25;;;;;;;28.93;31.57;100219.81;31472676;28;20381;-71
2022/06/15 11:31:41;;;;;;;3.38;1.20;;;;;;;26.94;33.59;100207.75;31440498;28;20056;-76
2022/06/15 11:47:27;;;;;;;3.17;1.10;;;;;;;26.27;31.95;100205.13;31442914;28;20080;-80
2022/06/15 12:02:48;;;;;;;1.48;1.08;;;;;;;25.44;33.69;100197.13;31431125;28;20489;-78
2022/06/15 12:17:58;;;;;;;2.65;1.23;;;;;;;25.61;33.52;100173.97;31470405;28;20056;-72
2022/06/15 12:33:41;;;;;;;3.05;1.30;;;;;;;25.18;32.96;100199.63;31461210;28;20048;-71
2022/06/15 12:48:59;;;;;;;;;;;;;;;25.04;32.28;100200.72;31487557;28;20052;-70
2022/06/15 13:04:22;;;;;;;4.18;1.00;;;;;;;24.87;32.92;100188.97;31456592;28;19927;-70
2022/06/15 13:19:46;;;;;;;2.65;1.58;;;;;;;24.83;33.55;100195.56;31450177;28;20110;-71
2022/06/15 13:34:48;;;;;;;1.65;1.00;;;;;;;24.67;33.25;100174.22;31458737;28;20059;-70
2022/06/15 13:49:58;;;;;;;1.50;0.85;;;;;;;24.74;33.13;100182.00;31442253;28;20807;-71
2022/06/15 14:05:27;;;;;;;3.20;1.30;;;;;;;24.51;33.08;100183.41;31439734;28;20053;-71
2022/06/15 14:20:45;;;;;;;2.42;0.80;;;;;;;24.54;32.86;100176.06;31444772;28;20050;-72
2022/06/15 14:36:16;;;;;;;3.13;1.40;;;;;;;24.61;33.52;100162.38;31456006;28;20401;-71
2022/06/15 14:51:25;;;;;;;2.40;1.10;;;;;;;24.61;33.81;100184.59;31427399;28;20049;-71
2022/06/15 15:06:27;;;;;;;2.88;0.63;;;;;;;24.22;33.59;100192.31;31430722;28;20041;-69
2022/06/15 15:21:35;;;;;;;4.23;0.80;;;;;;;23.93;34.08;100211.06;31432642;28;20044;-70
2022/06/15 15:52:18;;;;;;;1.50;1.02;;;;;;;23.52;34.85;100233.06;31504393;28;20053;-69
2022/06/15 16:07:24;;;;;;;3.90;0.88;;;;;;;23.46;34.78;100233.03;31441019;28;20056;-69
2022/06/15 16:22:27;;;;;;;2.13;0.60;;;;;;;23.30;34.69;100244.88;31439055;28;20102;-72
2022/06/15 16:37:29;;;;;;;7.20;1.57;;;;;;;22.89;34.22;100250.09;31452341;28;20064;-73
2022/06/15 16:52:31;;;;;;;1.67;1.00;;;;;;;22.59;35.13;100260.78;31469559;28;20047;-73
2022/06/15 17:07:36;;;;;;;1.50;0.87;;;;;;;22.25;37.53;100264.63;31437871;28;20099;-73
2022/06/15 17:22:39;;;;;;;7.32;3.65;;;;;;;21.93;38.36;100284.03;31458210;28;20045;-73
2022/06/15 17:37:46;;;;;;;3.58;1.45;;;;;;;21.58;39.80;100292.56;31472816;28;20044;-75
2022/06/15 17:52:49;;;;;;;1.83;1.20;;;;;;;21.23;41.14;100305.78;31450397;28;20040;-73
2022/06/15 18:07:52;;;;;;;2.80;1.90;;;;;;;20.99;41.63;100333.63;31444138;28;20508;-73
2022/06/15 18:22:55;;;;;;;6.67;2.07;;;;;;;20.73;42.63;100353.63;31468123;28;20052;-73
2022/06/15 18:37:59;;;;;;;2.63;1.50;;;;;;;20.48;43.80;100365.31;31459443;28;20061;-73
2022/06/15 18:53:05;;;;;;;2.70;0.98;;;;;;;20.24;44.74;100373.69;31425172;28;20060;-73
2022/06/15 19:08:11;;;;;;;3.92;1.58;;;;;;;20.07;45.88;100376.22;31415853;28;20056;-72
2022/06/15 19:23:15;;;;;;;2.42;1.58;;;;;;;19.88;46.60;100374.88;31442302;28;20143;-74
2022/06/15 19:38:17;;;;;;;3.07;1.50;;;;;;;19.70;47.34;100380.56;31434621;28;20102;-71
2022/06/15 19:53:19;;;;;;;4.47;1.33;;;;;;;19.57;47.57;100385.59;31439828;28;20131;-73
2022/06/15 20:08:21;;;;;;;8.17;1.10;;;;;;;19.48;47.68;100393.91;31468760;28;20428;-71
2022/06/15 20:23:25;;;;;;;1.05;0.95;;;;;;;19.42;47.44;100394.56;31461645;28;20048;-72
2022/06/15 20:38:27;;;;;;;1.83;1.00;;;;;;;19.26;47.49;100397.75;31440524;28;20057;-73
2022/06/15 20:53:30;;;;;;;2.85;0.93;;;;;;;19.10;47.72;100389.94;31426338;28;20408;-73
2022/06/15 21:08:33;;;;;;;3.83;1.80;;;;;;;18.80;48.25;100388.31;31460092;28;20139;-74
2022/06/15 21:23:36;;;;;;;2.28;1.02;;;;;;;18.65;48.61;100393.75;31440601;28;20519;-72
2022/06/15 21:38:38;;;;;;;1.88;1.20;;;;;;;18.49;48.67;100396.84;31428756;28;20417;-71
2022/06/15 21:53:42;;;;;;;1.58;1.08;;;;;;;18.32;49.41;100401.94;31433076;28;20404;-72
2022/06/15 22:08:44;;;;;;;4.57;1.35;;;;;;;18.18;50.07;100405.38;31466021;28;20052;-72
2022/06/15 22:23:47;;;;;;;3.72;1.27;;;;;;;18.01;50.81;100413.94;31448177;28;20044;-72
2022/06/15 22:38:49;;;;;;;2.10;1.40;;;;;;;17.76;51.10;100408.81;31433540;28;20056;-73
2022/06/15 22:53:51;;;;;;;2.25;1.05;;;;;;;17.57;52.30;100423.75;31420998;28;20135;-73
2022/06/15 23:08:53;;;;;;;2.08;0.90;;;;;;;17.29;52.50;100415.50;31439465;28;20043;-72
2022/06/15 23:23:55;;;;;;;2.38;1.00;;;;;;;17.15;54.05;100416.13;31419047;28;20036;-71
2022/06/15 23:38:57;;;;;;;3.50;1.30;;;;;;;17.03;54.29;100419.75;31427005;28;20051;-72
2022/06/15 23:53:59;;;;;;;3.72;1.13;;;;;;;16.91;54.40;100423.38;31423230;28;20056;-72
